Hlavní strana
METAR-TAF:

METAR-TAF

Letiště :

Córdoba, Argentina

zeměpisná šířka: 31-19S, zeměpisná délka: 064-13W, výška: 484 m

Aktuální stav počasí

Zpráva byla vytvořena před 46 minutami, v 16:00 UTC
Východojihovýchodní vítr 7 kt
Teplota 20°C
Vlhkost vzduchu 26%
Tlak 1016 hPa
Viditelnost 10 km a více
Žádná oblačnost pod 1500 m, nevyskytují se cumulonimby.

METAR: SACO 191600Z 12007KT CAVOK 20/00 Q1016 NOSIG

Čas: 13:46 (16:46 UTC)

Předpověď počasí

Zpráva byla vytvořena před 5 hodinami a 46 minutami, v 11:00 UTC
Předpověď platná od 19 v 12 UTC do 20 v 12 UTC
Západoseverozápadní vítr 5 kt
Viditelnost 10 km a více
Polojasno ve výšce 2500 ft
Změna
od 19 v 14 UTC do 19 v 16 UTC
Jihovýchodní vítr 10 kt
Viditelnost 10 km a více
Žádná oblačnost pod 1500 m, nevyskytují se cumulonimby.
Změna
od 20 v 00 UTC do 20 v 02 UTC
Severoseverozápadní vítr 5 kt

TAF: SACO 191100Z 1912/2012 30005KT 9999 SCT025 TX22/1918Z TN06/2010Z BECMG 1914/1916 14010KT CAVOK BECMG 2000/2002 34005KT

Stav a předpovědi počasí z více než 4 000 letišť (zprávy METAR a TAF).

Červené a žluté tečky na mapě představují dostupné meteorologické stanice.

Když kurzor umístíte na tečku, zobrazí se název stanice.

Pak kliknutím zobrazíte stav a předpověď počasí.

Chcete-li změnit mapu, kliknutím na zelené tlačítko se znaménkem +mapu přiblížíte, kliknutím na zelené tlačítko se znaménkem – mapu oddálíte a kliknutím na zelené šipky přejdete na sousední mapy.


METAR-TAF: